Time;durP1;ratioP1;P1;durP2;ratioP2;P2;SDS_P1;SDS_P2;PMS_P1;PMS_P2;Temp;Humidity;BMP_temperature;BMP_pressure;BME280_temperature;BME280_humidity;BME280_pressure;Samples;Min_cycle;Max_cycle;Signal;HPM_P1;HPM_P2
2023/04/14 00:00:05;;;;;;;8.98;5.78;;;7.70;75.40;;;;;;5084906;28;20230;-63
2023/04/14 00:02:48;;;;;;;7.95;5.07;;;7.70;75.40;;;;;;5036898;28;20554;-62
2023/04/14 00:05:22;;;;;;;11.38;5.35;;;7.70;75.40;;;;;;5080743;28;20686;-63
2023/04/14 00:08:02;;;;;;;19.77;8.00;;;7.70;75.40;;;;;;5083406;28;20287;-63
2023/04/14 00:10:38;;;;;;;10.13;6.18;;;7.80;75.40;;;;;;5084407;28;20206;-63
2023/04/14 00:13:08;;;;;;;11.63;7.03;;;7.80;75.50;;;;;;5082871;28;20217;-63
2023/04/14 00:15:46;;;;;;;32.88;8.65;;;7.80;75.50;;;;;;5090146;28;20221;-62
2023/04/14 00:18:15;;;;;;;12.87;7.63;;;7.80;75.60;;;;;;5080464;28;20215;-63
2023/04/14 00:21:01;;;;;;;25.03;8.43;;;7.80;75.60;;;;;;5083855;28;20838;-63
2023/04/14 00:23:35;;;;;;;13.40;8.68;;;7.80;75.80;;;;;;5076950;28;20467;-63
2023/04/14 00:26:10;;;;;;;17.57;8.43;;;7.80;75.90;;;;;;5080832;28;20207;-63
2023/04/14 00:28:47;;;;;;;17.08;9.23;;;7.90;76.10;;;;;;5069172;28;20465;-63
2023/04/14 00:31:26;;;;;;;16.55;9.20;;;7.90;76.10;;;;;;5065850;28;20264;-63
2023/04/14 00:33:59;;;;;;;14.90;8.70;;;7.90;76.20;;;;;;5082815;28;22290;-63
2023/04/14 00:36:31;;;;;;;14.05;8.90;;;8.00;76.20;;;;;;5064469;28;20521;-63
2023/04/14 00:38:59;;;;;;;15.68;9.57;;;8.00;76.30;;;;;;5065019;28;20298;-62
2023/04/14 00:41:48;;;;;;;16.65;9.75;;;8.00;76.30;;;;;;5081262;28;20298;-62
2023/04/14 00:44:27;;;;;;;17.02;8.20;;;8.00;76.50;;;;;;5083915;28;20207;-63
2023/04/14 00:47:03;;;;;;;16.70;8.80;;;8.00;76.60;;;;;;5088633;28;20210;-63
2023/04/14 00:49:36;;;;;;;21.00;8.65;;;8.00;76.60;;;;;;5083348;28;20558;-64
2023/04/14 00:52:07;;;;;;;13.37;8.10;;;8.00;76.60;;;;;;5065163;28;20426;-64
2023/04/14 00:54:40;;;;;;;21.77;8.70;;;8.00;76.60;;;;;;5082928;28;20674;-63
2023/04/14 00:57:18;;;;;;;11.70;7.55;;;8.10;76.70;;;;;;5084005;28;20240;-64
2023/04/14 00:59:54;;;;;;;14.00;7.80;;;8.10;76.70;;;;;;5071464;28;20637;-64
2023/04/14 01:02:29;;;;;;;11.70;6.85;;;8.10;76.80;;;;;;5066872;28;20226;-64
2023/04/14 01:05:03;;;;;;;16.67;8.77;;;8.10;76.90;;;;;;5084816;28;20334;-64
2023/04/14 01:07:40;;;;;;;24.13;8.43;;;8.10;76.80;;;;;;5061335;28;20210;-64
2023/04/14 01:10:16;;;;;;;20.97;7.97;;;8.00;76.80;;;;;;5071423;28;20210;-64
2023/04/14 01:13:07;;;;;;;13.18;8.05;;;8.00;76.80;;;;;;5083670;28;20900;-64
2023/04/14 01:15:43;;;;;;;14.02;7.25;;;8.00;76.90;;;;;;5086428;28;20287;-64
2023/04/14 01:18:27;;;;;;;12.80;7.82;;;7.90;76.90;;;;;;5085611;28;20197;-64
2023/04/14 01:21:13;;;;;;;15.40;7.22;;;7.90;76.90;;;;;;5075389;28;20665;-64
2023/04/14 01:24:16;;;;;;;56.77;8.20;;;7.90;77.00;;;;;;5084007;28;20610;-64
2023/04/14 01:26:49;;;;;;;69.05;14.40;;;7.90;76.90;;;;;;5083977;28;21156;-64
2023/04/14 01:29:55;;;;;;;44.05;9.02;;;7.80;76.80;;;;;;5067673;28;20214;-62
2023/04/14 01:32:34;;;;;;;52.33;16.80;;;7.70;76.80;;;;;;5044661;28;20240;-64
2023/04/14 01:35:19;;;;;;;32.55;16.10;;;7.70;76.90;;;;;;5081626;28;20217;-64
2023/04/14 01:38:00;;;;;;;26.58;12.60;;;7.60;76.90;;;;;;5082621;28;20200;-64
2023/04/14 01:40:40;;;;;;;27.45;10.55;;;7.50;76.90;;;;;;5065906;28;20685;-64
2023/04/14 01:43:20;;;;;;;22.70;11.77;;;7.40;77.00;;;;;;5079832;28;20228;-64
2023/04/14 01:45:58;;;;;;;18.60;8.98;;;7.40;77.00;;;;;;5085637;28;20221;-63
2023/04/14 01:48:37;;;;;;;11.05;6.80;;;7.30;77.10;;;;;;5082341;28;20198;-62
2023/04/14 01:51:09;;;;;;;18.30;10.83;;;7.20;77.20;;;;;;5064804;28;20236;-64
2023/04/14 01:53:47;;;;;;;26.90;7.68;;;7.20;77.20;;;;;;5082209;28;20448;-62
2023/04/14 01:56:26;;;;;;;16.83;7.90;;;7.20;77.40;;;;;;5083748;28;20240;-64
2023/04/14 01:59:00;;;;;;;15.68;8.40;;;7.20;77.30;;;;;;5064067;28;20211;-62
2023/04/14 02:01:40;;;;;;;18.17;9.00;;;7.00;77.30;;;;;;5081719;28;20672;-62
2023/04/14 02:04:17;;;;;;;32.75;9.73;;;7.10;77.50;;;;;;5082107;28;20749;-62
2023/04/14 02:06:51;;;;;;;26.83;8.80;;;7.00;77.50;;;;;;5083111;28;20198;-62
2023/04/14 02:09:29;;;;;;;32.97;9.82;;;7.00;77.40;;;;;;5064300;28;20236;-62
2023/04/14 02:12:12;;;;;;;57.67;11.85;;;7.00;77.60;;;;;;5057728;28;20223;-63
2023/04/14 02:14:53;;;;;;;62.88;19.40;;;7.00;77.70;;;;;;5081180;28;20209;-63
2023/04/14 02:17:27;;;;;;;24.80;13.18;;;7.00;77.70;;;;;;5081553;28;20548;-63
2023/04/14 02:20:05;;;;;;;35.00;9.98;;;7.00;77.80;;;;;;5063424;28;20300;-62
2023/04/14 02:22:36;;;;;;;26.52;9.80;;;7.10;77.90;;;;;;5080462;28;20204;-62
2023/04/14 02:25:16;;;;;;;32.30;9.70;;;7.10;78.00;;;;;;5075149;28;20346;-62
2023/04/14 02:27:53;;;;;;;18.45;9.25;;;7.10;77.90;;;;;;5079856;28;20798;-63
2023/04/14 02:30:33;;;;;;;13.73;7.38;;;7.10;77.90;;;;;;5063293;28;20198;-63
2023/04/14 02:33:08;;;;;;;19.33;7.28;;;7.20;78.10;;;;;;5080080;28;20580;-63
2023/04/14 02:35:49;;;;;;;13.85;6.53;;;7.20;78.00;;;;;;5062748;28;20213;-63
2023/04/14 02:38:29;;;;;;;14.98;7.57;;;7.20;78.10;;;;;;5065763;28;20209;-63
2023/04/14 02:41:09;;;;;;;11.82;6.15;;;7.20;78.10;;;;;;5078149;28;20213;-62
2023/04/14 02:43:53;;;;;;;13.43;6.25;;;7.20;78.10;;;;;;5082820;28;20228;-62
2023/04/14 02:46:28;;;;;;;9.40;5.30;;;7.20;78.00;;;;;;5017290;28;20255;-63
2023/04/14 02:49:04;;;;;;;12.70;7.05;;;7.20;78.00;;;;;;5061687;28;20209;-63
2023/04/14 02:51:50;;;;;;;15.25;7.18;;;7.30;78.00;;;;;;5048110;28;20244;-63
2023/04/14 02:54:25;;;;;;;16.80;7.50;;;7.30;78.00;;;;;;5075684;28;20254;-62
2023/04/14 02:57:04;;;;;;;12.82;6.82;;;7.30;77.90;;;;;;5078229;28;20264;-63
2023/04/14 02:59:42;;;;;;;18.35;9.25;;;7.30;77.90;;;;;;5079023;28;20581;-62
2023/04/14 03:02:15;;;;;;;40.35;12.02;;;7.30;78.00;;;;;;5084581;28;20228;-63
2023/04/14 03:04:55;;;;;;;14.48;8.38;;;7.30;77.90;;;;;;5062464;28;20209;-63
2023/04/14 03:07:54;;;;;;;16.33;8.70;;;7.30;77.90;;;;;;5064033;28;20896;-63
2023/04/14 03:10:34;;;;;;;18.98;8.90;;;7.30;78.00;;;;;;5082404;28;20208;-63
2023/04/14 03:13:09;;;;;;;14.15;7.20;;;7.30;78.00;;;;;;5074025;28;20216;-63
2023/04/14 03:15:45;;;;;;;15.40;7.07;;;7.30;78.00;;;;;;5061551;28;20225;-63
2023/04/14 03:18:20;;;;;;;11.52;6.22;;;7.30;78.00;;;;;;5080110;28;20209;-63
2023/04/14 03:20:54;;;;;;;11.68;6.47;;;7.30;78.00;;;;;;5081163;28;20199;-63
2023/04/14 03:23:42;;;;;;;13.13;6.57;;;7.30;78.00;;;;;;5080763;28;20216;-63
2023/04/14 03:26:18;;;;;;;10.50;5.53;;;7.30;78.00;;;;;;5075730;28;20209;-63
2023/04/14 03:28:49;;;;;;;49.90;7.43;;;7.30;77.90;;;;;;5059029;28;20213;-63
2023/04/14 03:31:21;;;;;;;15.43;6.10;;;7.30;77.90;;;;;;5068971;28;20666;-62
2023/04/14 03:33:58;;;;;;;12.73;4.72;;;7.20;77.90;;;;;;5086273;28;20209;-63
2023/04/14 03:36:45;;;;;;;55.45;7.28;;;7.20;78.00;;;;;;5085807;28;20212;-62
2023/04/14 03:39:24;;;;;;;61.65;6.97;;;7.20;77.70;;;;;;5072270;28;20206;-63
2023/04/14 03:42:03;;;;;;;68.18;6.30;;;7.10;77.60;;;;;;5079891;28;20210;-63
2023/04/14 03:44:37;;;;;;;59.28;6.65;;;7.00;77.50;;;;;;5081559;28;20564;-63
2023/04/14 03:47:11;;;;;;;65.57;6.78;;;6.90;77.50;;;;;;5065619;28;20297;-63
2023/04/14 03:49:46;;;;;;;35.15;6.10;;;6.80;77.50;;;;;;5083655;28;20859;-63
2023/04/14 03:52:22;;;;;;;54.65;6.25;;;6.80;77.60;;;;;;5085579;28;20228;-63
2023/04/14 03:55:02;;;;;;;35.55;6.03;;;6.70;77.60;;;;;;5062409;28;20653;-62
2023/04/14 03:57:37;;;;;;;10.10;4.60;;;6.70;77.70;;;;;;5085755;28;20216;-64
2023/04/14 04:00:14;;;;;;;10.90;6.10;;;6.60;77.70;;;;;;5080101;28;20262;-63
2023/04/14 04:02:53;;;;;;;8.88;5.13;;;6.70;78.10;;;;;;5082248;28;20219;-62
2023/04/14 04:05:29;;;;;;;12.18;4.97;;;6.70;78.20;;;;;;5068431;28;20607;-63
2023/04/14 04:08:02;;;;;;;7.72;4.03;;;6.80;78.30;;;;;;5069884;28;20261;-63
2023/04/14 04:10:42;;;;;;;9.38;3.40;;;6.80;78.20;;;;;;5084824;28;20199;-63
2023/04/14 04:13:19;;;;;;;8.20;4.70;;;6.80;78.10;;;;;;5082062;28;20222;-62
2023/04/14 04:15:55;;;;;;;7.35;4.28;;;6.80;78.10;;;;;;5082173;28;20247;-65
2023/04/14 04:18:27;;;;;;;8.25;4.25;;;6.80;78.10;;;;;;5066417;28;20231;-64
2023/04/14 04:21:03;;;;;;;14.55;4.88;;;6.90;78.10;;;;;;5070117;28;20281;-63
2023/04/14 04:23:37;;;;;;;35.17;5.35;;;6.90;78.10;;;;;;5064888;28;20900;-62
2023/04/14 04:26:15;;;;;;;7.43;4.22;;;6.90;78.00;;;;;;5067093;28;20502;-62
2023/04/14 04:28:52;;;;;;;16.13;4.90;;;6.90;77.90;;;;;;5083888;28;20204;-62
2023/04/14 04:31:31;;;;;;;8.15;4.95;;;6.90;78.00;;;;;;5061313;28;20244;-65
2023/04/14 04:34:11;;;;;;;6.60;3.90;;;6.90;78.00;;;;;;5078259;28;20251;-64
2023/04/14 04:36:46;;;;;;;20.45;4.57;;;6.90;78.00;;;;;;5074080;28;20208;-62
2023/04/14 04:39:21;;;;;;;7.28;4.38;;;6.80;78.00;;;;;;5079353;28;20214;-63
2023/04/14 04:42:06;;;;;;;27.90;5.30;;;6.90;78.00;;;;;;5062804;28;20263;-64
2023/04/14 04:44:40;;;;;;;8.70;4.30;;;6.90;78.00;;;;;;5064642;28;20682;-64
2023/04/14 04:47:21;;;;;;;7.43;4.30;;;6.80;77.90;;;;;;5065549;28;20245;-62
2023/04/14 04:49:55;;;;;;;11.45;4.35;;;6.80;77.90;;;;;;5063851;28;20226;-62
2023/04/14 04:52:32;;;;;;;19.60;4.65;;;6.80;78.00;;;;;;5085102;28;20320;-62
2023/04/14 04:55:03;;;;;;;13.35;4.72;;;6.80;78.00;;;;;;5081853;28;20200;-62
2023/04/14 04:57:49;;;;;;;8.25;4.70;;;6.80;78.10;;;;;;5080893;28;20217;-62
2023/04/14 05:00:29;;;;;;;8.30;4.07;;;6.80;78.00;;;;;;5073985;28;20239;-64
2023/04/14 05:03:03;;;;;;;7.85;4.32;;;6.80;78.00;;;;;;5079257;28;20466;-62
2023/04/14 05:05:39;;;;;;;44.85;6.45;;;6.70;78.10;;;;;;5087782;28;20209;-62
2023/04/14 05:08:12;;;;;;;14.07;5.15;;;6.70;78.10;;;;;;5083199;28;20825;-62
2023/04/14 05:10:46;;;;;;;31.00;5.88;;;6.80;78.20;;;;;;5081183;28;20206;-62
2023/04/14 05:13:24;;;;;;;12.88;5.70;;;6.80;78.10;;;;;;5079086;28;20230;-62
2023/04/14 05:16:10;;;;;;;14.73;6.13;;;6.70;78.20;;;;;;5082530;28;20618;-62
2023/04/14 05:18:41;;;;;;;13.30;6.45;;;6.70;78.30;;;;;;5082482;28;20273;-62
2023/04/14 05:21:11;;;;;;;18.67;6.43;;;6.70;78.40;;;;;;5081652;28;20397;-62
2023/04/14 05:23:47;;;;;;;27.00;6.50;;;6.80;78.40;;;;;;5083402;28;20634;-62
2023/04/14 05:26:26;;;;;;;15.05;6.20;;;6.80;78.30;;;;;;5082460;28;20205;-62
2023/04/14 05:29:30;;;;;;;15.52;6.43;;;6.70;78.30;;;;;;5081306;28;20205;-62
2023/04/14 05:32:02;;;;;;;14.63;6.82;;;6.80;78.50;;;;;;5078381;28;20643;-62
2023/04/14 05:34:38;;;;;;;21.48;5.75;;;6.80;78.60;;;;;;5079163;28;20235;-62
2023/04/14 05:37:11;;;;;;;51.25;7.32;;;6.80;78.50;;;;;;5083658;28;20215;-62
2023/04/14 05:39:40;;;;;;;55.97;7.68;;;6.80;78.50;;;;;;5083799;28;20214;-62
2023/04/14 05:42:23;;;;;;;27.05;7.38;;;6.80;78.50;;;;;;5079637;28;20200;-62
2023/04/14 05:45:02;;;;;;;69.63;7.07;;;6.80;78.50;;;;;;5083015;28;20206;-62
2023/04/14 05:47:42;;;;;;;39.33;6.65;;;6.90;78.50;;;;;;5081279;28;20220;-62
2023/04/14 05:50:22;;;;;;;14.38;5.00;;;6.80;78.50;;;;;;5078282;28;20320;-62
2023/04/14 05:53:02;;;;;;;25.50;5.00;;;6.80;78.50;;;;;;5080607;28;20221;-63
2023/04/14 05:55:36;;;;;;;11.07;5.20;;;6.80;78.70;;;;;;5082835;28;20747;-62
2023/04/14 05:58:04;;;;;;;14.77;5.47;;;6.90;78.80;;;;;;5080265;28;20839;-63
2023/04/14 06:00:38;;;;;;;21.65;5.00;;;6.90;78.80;;;;;;5076470;28;20244;-63
2023/04/14 06:03:10;;;;;;;13.55;7.32;;;6.90;78.90;;;;;;5078080;28;20198;-63
2023/04/14 06:05:49;;;;;;;14.02;5.38;;;6.90;78.80;;;;;;5082370;28;20630;-63
2023/04/14 06:08:31;;;;;;;17.05;4.97;;;6.90;78.80;;;;;;5080878;28;20229;-63
2023/04/14 06:11:10;;;;;;;9.85;4.28;;;7.00;79.00;;;;;;5077584;28;20197;-63
2023/04/14 06:13:49;;;;;;;14.57;4.22;;;7.00;79.00;;;;;;5077804;28;20249;-62
2023/04/14 06:16:39;;;;;;;41.25;4.93;;;7.00;79.10;;;;;;5082620;28;20212;-62
2023/04/14 06:19:14;;;;;;;24.98;5.45;;;7.10;79.10;;;;;;5080810;28;20216;-62
2023/04/14 06:21:55;;;;;;;28.48;4.63;;;7.10;78.90;;;;;;5081379;28;21845;-62
2023/04/14 06:24:27;;;;;;;9.27;3.97;;;7.10;79.00;;;;;;5082317;28;20210;-62
2023/04/14 06:27:04;;;;;;;6.05;3.80;;;7.10;79.10;;;;;;5081031;28;20540;-63
2023/04/14 06:29:41;;;;;;;7.75;3.75;;;7.20;79.20;;;;;;5077969;28;20208;-62
2023/04/14 06:32:23;;;;;;;10.77;3.70;;;7.30;79.30;;;;;;5076964;28;20776;-63
2023/04/14 06:35:03;;;;;;;17.70;3.58;;;7.30;79.30;;;;;;5082084;28;20217;-62
2023/04/14 06:37:47;;;;;;;5.97;2.97;;;7.40;79.10;;;;;;5081242;28;20203;-63
2023/04/14 06:40:19;;;;;;;4.82;2.80;;;7.40;79.10;;;;;;5080719;28;20722;-63
2023/04/14 06:42:51;;;;;;;5.30;3.17;;;7.50;79.10;;;;;;5079470;28;20270;-62
2023/04/14 06:45:30;;;;;;;7.15;3.45;;;7.50;79.20;;;;;;5078496;28;20210;-62
2023/04/14 06:48:15;;;;;;;9.95;3.20;;;7.60;79.10;;;;;;5082837;28;20240;-62
2023/04/14 06:51:02;;;;;;;6.43;3.70;;;7.70;79.20;;;;;;5078816;28;20568;-63
2023/04/14 06:53:37;;;;;;;6.63;3.13;;;7.70;79.20;;;;;;5080877;28;20241;-65
2023/04/14 06:56:11;;;;;;;7.50;3.55;;;7.80;79.30;;;;;;5079842;28;20228;-63
2023/04/14 06:58:41;;;;;;;7.55;3.60;;;7.80;79.30;;;;;;5081317;28;20685;-62
2023/04/14 07:01:16;;;;;;;8.68;4.05;;;7.80;79.20;;;;;;5082144;28;20261;-62
2023/04/14 07:03:50;;;;;;;10.20;5.30;;;7.90;79.30;;;;;;5080497;28;20553;-63
2023/04/14 07:06:23;;;;;;;10.10;6.28;;;7.80;79.30;;;;;;5080330;28;20242;-63
2023/04/14 07:09:02;;;;;;;9.18;5.25;;;7.80;79.60;;;;;;5083450;28;20211;-63
2023/04/14 07:11:37;;;;;;;14.48;6.28;;;7.80;79.70;;;;;;5079942;28;20665;-62
2023/04/14 07:14:13;;;;;;;15.15;5.97;;;7.90;80.00;;;;;;5081458;28;20680;-62
2023/04/14 07:16:59;;;;;;;13.68;7.32;;;8.00;80.00;;;;;;5082673;28;20209;-62
2023/04/14 07:19:40;;;;;;;16.55;8.45;;;8.00;80.10;;;;;;5079688;28;20304;-65
2023/04/14 07:22:15;;;;;;;12.82;7.63;;;8.10;80.10;;;;;;5079110;28;20201;-65
2023/04/14 07:24:48;;;;;;;19.88;8.27;;;8.10;80.10;;;;;;5081043;28;20199;-62
2023/04/14 07:27:27;;;;;;;14.73;9.88;;;8.10;80.10;;;;;;5078836;28;20229;-62
2023/04/14 07:29:58;;;;;;;16.23;9.60;;;8.10;80.40;;;;;;5078887;28;20267;-63
2023/04/14 07:32:34;;;;;;;15.93;9.23;;;8.10;80.50;;;;;;5080549;28;20241;-63
2023/04/14 07:35:13;;;;;;;18.02;10.25;;;8.20;80.60;;;;;;5081175;28;20686;-62
2023/04/14 07:37:54;;;;;;;15.70;10.10;;;8.20;80.60;;;;;;5077470;28;20210;-62
2023/04/14 07:40:28;;;;;;;15.47;9.37;;;8.30;80.60;;;;;;5080198;28;20488;-63
2023/04/14 07:43:03;;;;;;;17.00;9.50;;;8.30;80.80;;;;;;5077096;28;20656;-62
2023/04/14 07:45:36;;;;;;;16.27;9.60;;;8.30;80.80;;;;;;5083263;28;20206;-63
2023/04/14 07:48:07;;;;;;;17.00;9.25;;;8.30;81.00;;;;;;5082491;28;20297;-63
2023/04/14 07:50:41;;;;;;;16.98;9.25;;;8.40;81.10;;;;;;5078912;28;20203;-63
2023/04/14 07:53:15;;;;;;;17.80;10.17;;;8.50;81.10;;;;;;5079324;28;20195;-66
2023/04/14 07:55:52;;;;;;;21.03;8.50;;;8.50;81.30;;;;;;5079098;28;20956;-64
2023/04/14 07:58:25;;;;;;;14.87;8.50;;;8.60;81.30;;;;;;5080901;28;20442;-63
2023/04/14 08:01:01;;;;;;;14.10;8.13;;;8.70;81.40;;;;;;5078110;28;20803;-63
2023/04/14 08:03:36;;;;;;;21.13;8.70;;;8.80;81.50;;;;;;5078668;28;20480;-64
2023/04/14 08:06:17;;;;;;;16.67;8.13;;;8.80;81.50;;;;;;5079423;28;20233;-64
2023/04/14 08:08:55;;;;;;;12.98;6.82;;;8.90;81.60;;;;;;5079791;28;21197;-64
2023/04/14 08:11:25;;;;;;;14.07;7.43;;;9.00;81.70;;;;;;5079876;28;20289;-64
2023/04/14 08:14:12;;;;;;;23.03;10.67;;;9.10;81.70;;;;;;5079697;28;20573;-64
2023/04/14 08:16:44;;;;;;;12.77;6.93;;;9.30;81.60;;;;;;5084180;28;20449;-64
2023/04/14 08:19:17;;;;;;;14.80;7.33;;;9.30;81.60;;;;;;5082352;28;20444;-64
2023/04/14 08:21:54;;;;;;;12.60;6.80;;;9.40;81.60;;;;;;5083072;28;20461;-64
2023/04/14 08:24:26;;;;;;;19.00;8.00;;;9.50;81.60;;;;;;5082592;28;20539;-63
2023/04/14 08:27:05;;;;;;;11.33;6.97;;;9.50;81.70;;;;;;5083981;28;20501;-63
2023/04/14 08:29:43;;;;;;;14.43;6.30;;;9.50;81.70;;;;;;5083496;28;20454;-64
2023/04/14 08:32:27;;;;;;;13.53;6.17;;;9.60;81.60;;;;;;5080381;28;20498;-64
2023/04/14 08:35:07;;;;;;;11.73;5.60;;;9.60;81.60;;;;;;5082908;28;20530;-64
2023/04/14 08:38:07;;;;;;;10.87;6.70;;;9.70;81.60;;;;;;5081863;28;20463;-64
2023/04/14 08:40:46;;;;;;;10.50;5.60;;;9.70;81.50;;;;;;5083713;28;20544;-64
2023/04/14 08:43:21;;;;;;;12.73;6.40;;;9.80;81.40;;;;;;5082818;28;20460;-64
2023/04/14 08:45:55;;;;;;;14.40;7.40;;;9.90;81.20;;;;;;5082801;28;20985;-64
2023/04/14 08:48:34;;;;;;;11.10;6.37;;;10.00;81.10;;;;;;5082228;28;20463;-64
2023/04/14 08:51:16;;;;;;;14.40;6.47;;;10.10;81.00;;;;;;5080844;28;20454;-64
2023/04/14 08:53:55;;;;;;;16.40;6.83;;;10.10;81.00;;;;;;5082339;28;20924;-64
2023/04/14 08:56:38;;;;;;;12.47;7.00;;;10.20;80.90;;;;;;5082998;28;20487;-64
2023/04/14 08:59:13;;;;;;;13.63;6.43;;;10.20;80.90;;;;;;5081486;28;20552;-64
2023/04/14 09:01:44;;;;;;;13.20;6.47;;;10.20;81.10;;;;;;5078046;28;20492;-64
2023/04/14 09:04:19;;;;;;;13.83;5.90;;;10.20;81.10;;;;;;5080020;28;20536;-64
2023/04/14 09:06:51;;;;;;;11.33;5.13;;;10.20;81.10;;;;;;5077422;28;21025;-64
2023/04/14 09:09:29;;;;;;;10.50;5.57;;;10.20;81.10;;;;;;5082123;28;20477;-64
2023/04/14 09:12:02;;;;;;;10.03;6.17;;;10.40;80.90;;;;;;5081826;28;20465;-64
2023/04/14 09:14:39;;;;;;;11.87;6.73;;;10.40;80.80;;;;;;5088155;28;21087;-64
2023/04/14 09:17:10;;;;;;;11.00;5.80;;;10.60;80.70;;;;;;5073011;28;20903;-64
2023/04/14 09:19:51;;;;;;;11.60;5.83;;;10.70;80.50;;;;;;5081545;28;20463;-64
2023/04/14 09:22:44;;;;;;;10.77;5.63;;;10.70;80.40;;;;;;5080447;28;20463;-64
2023/04/14 09:25:21;;;;;;;12.93;6.30;;;10.80;80.20;;;;;;5083544;28;20773;-64
2023/04/14 09:27:59;;;;;;;17.90;6.60;;;10.90;80.10;;;;;;5080640;28;20462;-64
2023/04/14 09:30:30;;;;;;;12.40;6.77;;;10.90;80.00;;;;;;5080804;28;20542;-65
2023/04/14 09:33:10;;;;;;;10.10;6.63;;;10.90;79.80;;;;;;5084445;28;20462;-64
2023/04/14 09:35:47;;;;;;;14.33;7.00;;;10.90;79.60;;;;;;5077666;28;20469;-65
2023/04/14 09:38:39;;;;;;;14.60;7.50;;;11.00;79.40;;;;;;5082231;28;20461;-64
2023/04/14 09:41:20;;;;;;;12.00;6.50;;;11.00;79.20;;;;;;5081959;28;20656;-64
2023/04/14 09:43:53;;;;;;;13.00;6.77;;;11.00;79.00;;;;;;5077256;28;20848;-64
2023/04/14 09:49:14;;;;;;;13.00;6.33;;;11.10;78.70;;;;;;5077849;28;20549;-65
2023/04/14 09:52:05;;;;;;;11.80;5.73;;;11.20;78.50;;;;;;5074891;28;20816;-64
2023/04/14 09:54:38;;;;;;;12.63;6.13;;;11.20;78.40;;;;;;5083861;28;20490;-64
2023/04/14 09:57:28;;;;;;;13.07;7.70;;;11.30;78.30;;;;;;5086104;28;20481;-64
2023/04/14 10:03:02;;;;;;;10.03;6.40;;;11.40;77.80;;;;;;5076656;28;20498;-64
2023/04/14 10:05:36;;;;;;;14.80;6.93;;;11.50;77.70;;;;;;5081716;28;20939;-64
2023/04/14 10:08:10;;;;;;;14.60;6.23;;;11.60;77.40;;;;;;5061571;28;20462;-64
2023/04/14 10:10:45;;;;;;;9.47;5.27;;;11.70;77.10;;;;;;5080988;28;20567;-64
2023/04/14 10:13:20;;;;;;;7.83;5.37;;;11.80;76.80;;;;;;5077783;28;20583;-65
2023/04/14 10:15:55;;;;;;;8.47;5.50;;;11.70;76.00;;;;;;5082030;28;20491;-64
2023/04/14 10:18:34;;;;;;;13.20;6.67;;;11.90;76.20;;;;;;5080771;28;20469;-65
2023/04/14 10:21:07;;;;;;;10.23;5.87;;;11.90;76.00;;;;;;5077819;28;20461;-65
2023/04/14 10:23:38;;;;;;;9.67;5.63;;;12.00;75.30;;;;;;5080779;28;20537;-65
2023/04/14 10:26:19;;;;;;;10.17;5.60;;;12.00;75.30;;;;;;5079018;28;20459;-64
2023/04/14 10:29:08;;;;;;;10.27;6.77;;;12.10;75.20;;;;;;5080763;28;21173;-65
2023/04/14 10:31:43;;;;;;;11.13;5.90;;;12.00;74.30;;;;;;5078343;28;21169;-64
2023/04/14 10:34:14;;;;;;;9.03;5.37;;;12.10;74.80;;;;;;5077952;28;20669;-65
2023/04/14 10:36:47;;;;;;;10.90;5.00;;;12.20;74.60;;;;;;5082767;28;20480;-65
2023/04/14 10:39:25;;;;;;;22.17;6.10;;;12.20;74.40;;;;;;5079642;28;20457;-64
2023/04/14 10:42:02;;;;;;;8.87;4.70;;;12.30;73.90;;;;;;5077121;28;21312;-64
2023/04/14 10:44:42;;;;;;;6.07;3.37;;;12.30;73.60;;;;;;5080556;28;20945;-65
2023/04/14 10:47:28;;;;;;;6.50;2.90;;;12.20;73.20;;;;;;5086145;28;20452;-65
2023/04/14 10:50:03;;;;;;;7.23;2.70;;;12.10;72.60;;;;;;5081266;28;20456;-64
2023/04/14 10:52:44;;;;;;;7.43;2.90;;;12.20;72.00;;;;;;5081472;28;20455;-65
2023/04/14 10:55:23;;;;;;;4.67;2.27;;;12.10;71.90;;;;;;5079025;28;20464;-65
2023/04/14 10:58:02;;;;;;;5.50;3.00;;;12.10;71.90;;;;;;5083094;28;20508;-65
2023/04/14 11:00:40;;;;;;;5.03;2.60;;;12.20;71.90;;;;;;5079810;28;20518;-65
2023/04/14 11:03:18;;;;;;;8.70;3.50;;;12.20;71.70;;;;;;5078267;28;20825;-65
2023/04/14 11:05:51;;;;;;;7.60;3.43;;;12.20;71.50;;;;;;5080691;28;20464;-65
2023/04/14 11:08:37;;;;;;;6.97;3.80;;;12.30;71.20;;;;;;5084593;28;20549;-66
2023/04/14 11:11:10;;;;;;;6.90;4.20;;;12.30;70.90;;;;;;5080560;28;20457;-62
2023/04/14 11:13:50;;;;;;;9.37;4.90;;;12.30;70.80;;;;;;5079292;28;20475;-65
2023/04/14 11:16:33;;;;;;;7.43;3.80;;;12.30;71.00;;;;;;5078342;28;20555;-63
2023/04/14 11:19:15;;;;;;;7.43;3.70;;;12.30;70.70;;;;;;5082424;28;20468;-65
2023/04/14 11:21:52;;;;;;;7.40;4.43;;;12.30;70.90;;;;;;5081170;28;20457;-65
2023/04/14 11:24:29;;;;;;;11.00;3.60;;;12.30;70.50;;;;;;5083678;28;20875;-64
2023/04/14 11:27:01;;;;;;;6.80;3.33;;;12.50;70.70;;;;;;5057998;28;20464;-65
2023/04/14 11:29:35;;;;;;;8.50;4.37;;;12.50;70.80;;;;;;5081182;28;21128;-64
2023/04/14 11:32:17;;;;;;;9.20;3.67;;;12.60;70.70;;;;;;5078401;28;20569;-64
2023/04/14 11:34:51;;;;;;;8.23;4.90;;;12.70;70.40;;;;;;5083674;28;20464;-65
2023/04/14 11:37:26;;;;;;;8.60;4.90;;;12.80;70.50;;;;;;5081238;28;20484;-62
2023/04/14 11:40:02;;;;;;;9.47;4.90;;;12.90;70.50;;;;;;5077780;28;20463;-64
2023/04/14 11:42:34;;;;;;;9.80;4.93;;;12.90;70.20;;;;;;5079098;28;20449;-64
2023/04/14 11:45:12;;;;;;;9.37;4.90;;;12.80;69.90;;;;;;5076449;28;20983;-63
2023/04/14 11:48:02;;;;;;;12.03;5.20;;;12.80;70.00;;;;;;5062860;28;20710;-63
2023/04/14 11:50:41;;;;;;;8.23;4.73;;;12.90;69.90;;;;;;5082264;28;20644;-65
2023/04/14 11:53:23;;;;;;;9.87;5.23;;;12.90;69.70;;;;;;5080932;28;20477;-64
2023/04/14 11:55:59;;;;;;;8.23;4.70;;;12.90;69.50;;;;;;5085084;28;20729;-63
2023/04/14 11:58:39;;;;;;;10.20;5.00;;;12.90;69.50;;;;;;5087648;28;20492;-65
2023/04/14 12:01:13;;;;;;;9.37;3.80;;;12.90;69.40;;;;;;5082121;28;20875;-65
2023/04/14 12:03:51;;;;;;;10.03;5.00;;;13.00;69.30;;;;;;5084945;28;20572;-65
2023/04/14 12:06:23;;;;;;;8.20;3.40;;;13.00;69.20;;;;;;5083078;28;20474;-65
2023/04/14 12:09:00;;;;;;;6.60;3.70;;;13.10;69.00;;;;;;5085377;28;20804;-62
2023/04/14 12:11:38;;;;;;;9.20;3.30;;;13.20;68.60;;;;;;5084302;28;20564;-65
2023/04/14 12:14:17;;;;;;;5.93;2.63;;;13.20;68.30;;;;;;5082436;28;20526;-63
2023/04/14 12:16:49;;;;;;;6.00;2.47;;;13.30;68.10;;;;;;5081076;28;20828;-62
2023/04/14 12:19:42;;;;;;;7.47;2.73;;;13.30;67.50;;;;;;5081654;28;20472;-63
2023/04/14 12:22:22;;;;;;;7.30;3.00;;;13.40;67.20;;;;;;5083369;28;20475;-63
2023/04/14 12:24:54;;;;;;;7.10;2.80;;;13.40;66.90;;;;;;5081028;28;20436;-62
2023/04/14 12:27:33;;;;;;;7.77;2.80;;;13.50;66.80;;;;;;5087874;28;20847;-65
2023/04/14 12:30:05;;;;;;;5.80;3.00;;;13.50;66.30;;;;;;5081957;28;20511;-65
2023/04/14 12:32:44;;;;;;;10.17;2.83;;;13.40;65.80;;;;;;5082427;28;20802;-66
2023/04/14 12:35:24;;;;;;;5.80;2.43;;;13.60;65.90;;;;;;5081713;28;21038;-63
2023/04/14 12:40:41;;;;;;;6.10;3.13;;;13.70;65.50;;;;;;5079389;28;20833;-62
2023/04/14 12:43:22;;;;;;;9.20;3.47;;;13.80;65.50;;;;;;5081492;28;20455;-63
2023/04/14 12:45:56;;;;;;;7.70;2.90;;;13.90;65.20;;;;;;5080838;28;21011;-63
2023/04/14 12:48:44;;;;;;;6.13;3.10;;;13.90;65.00;;;;;;5084665;28;20923;-63
2023/04/14 12:51:40;;;;;;;7.20;2.83;;;13.90;65.10;;;;;;5083241;28;20477;-63
2023/04/14 12:54:11;;;;;;;7.93;2.97;;;13.80;65.20;;;;;;5083590;28;20622;-63
2023/04/14 12:56:49;;;;;;;8.10;3.40;;;13.90;65.10;;;;;;5083300;28;20484;-63
2023/04/14 12:59:24;;;;;;;7.43;3.03;;;14.00;65.30;;;;;;5083780;28;20460;-63
2023/04/14 13:02:03;;;;;;;4.97;2.90;;;14.10;65.30;;;;;;5080216;28;21044;-63
2023/04/14 13:04:53;;;;;;;13.47;6.50;;;14.00;65.30;;;;;;5082006;28;20784;-63
2023/04/14 13:07:30;;;;;;;8.77;3.53;;;14.00;65.00;;;;;;5082974;28;20470;-63
2023/04/14 13:09:58;;;;;;;10.30;5.80;;;14.10;64.70;;;;;;5080279;28;20444;-63
2023/04/14 13:12:30;;;;;;;7.97;4.40;;;13.90;64.60;;;;;;5079959;28;20956;-63
2023/04/14 13:15:02;;;;;;;7.30;4.30;;;13.90;64.40;;;;;;5079583;28;20540;-63
2023/04/14 13:17:33;;;;;;;8.73;3.60;;;13.90;64.40;;;;;;5080877;28;20488;-63
2023/04/14 13:20:08;;;;;;;6.90;3.80;;;13.90;64.40;;;;;;5082945;28;20530;-63
2023/04/14 13:22:44;;;;;;;7.97;4.53;;;13.90;64.20;;;;;;5080394;28;20519;-63
2023/04/14 13:25:22;;;;;;;10.00;4.30;;;13.80;64.30;;;;;;5079680;28;20466;-63
2023/04/14 13:27:56;;;;;;;7.40;4.17;;;13.70;64.20;;;;;;5082075;28;20461;-63
2023/04/14 13:30:37;;;;;;;6.70;3.83;;;13.70;64.10;;;;;;5083062;28;20542;-63
2023/04/14 13:33:16;;;;;;;9.87;4.00;;;13.60;64.10;;;;;;5089570;28;20738;-63
2023/04/14 13:35:49;;;;;;;6.60;2.80;;;13.60;64.20;;;;;;5082801;28;20516;-63
2023/04/14 13:38:37;;;;;;;9.33;3.40;;;13.60;64.20;;;;;;5085837;28;20484;-63
2023/04/14 13:41:09;;;;;;;7.13;2.40;;;13.70;63.90;;;;;;5085236;28;20550;-63
2023/04/14 13:43:53;;;;;;;4.33;1.50;;;13.70;63.90;;;;;;5081493;28;20547;-64
2023/04/14 13:46:25;;;;;;;5.20;1.70;;;13.60;63.70;;;;;;5085872;28;20456;-63